Providence, Rhode Island
Traffic Map
Current Weather Conditions
Providence, Rhode Island
Scattered Clouds
Scattered Clouds
11°
Feels Like: 11°
Wind Chill: 11° Ceiling: Unl
Heat Index: 11° Visibility: 10mi
Dew Point: Wind: 0mph
Humidity: 68% Direction: ° ()
Pressure: 29.76in Gusts: 0mph
Raw Report DataKPVD 220351Z 00000KT 10SM SCT095 11/05 A2976 RMK AO2 SLP078 LAST AUGMENTED T01060050
Traffic Incident Summary
Active as of:
Severity:
Category:
InformationThere was an issue retrieving the traffic information for this location. Please try a different location or try again shortly.
Advertisements
Track Severe Weather on mobile